createdAt,value
2023-05-05T00:00:28.674Z,40.20
2023-05-05T00:01:28.710Z,40.16
2023-05-05T00:02:28.851Z,40.13
2023-05-05T00:03:28.914Z,40.02
2023-05-05T00:04:28.863Z,39.97
2023-05-05T00:05:28.937Z,39.92
2023-05-05T00:06:28.970Z,39.96
2023-05-05T00:07:29.017Z,39.97
2023-05-05T00:08:29.099Z,39.92
2023-05-05T00:09:29.182Z,39.94
2023-05-05T00:10:29.210Z,39.84
2023-05-05T00:11:29.252Z,39.82
2023-05-05T00:12:29.407Z,39.74
2023-05-05T00:13:29.359Z,39.77
2023-05-05T00:14:29.404Z,39.67
2023-05-05T00:15:29.450Z,39.73
2023-05-05T00:16:29.556Z,39.72
2023-05-05T00:17:29.615Z,39.68
2023-05-05T00:18:29.638Z,39.73
2023-05-05T00:19:29.679Z,39.67
2023-05-05T00:20:29.760Z,39.66
2023-05-05T00:21:29.817Z,39.74
2023-05-05T00:22:29.882Z,39.78
2023-05-05T00:23:29.894Z,39.79
2023-05-05T00:24:29.966Z,39.68
2023-05-05T00:25:29.999Z,39.67
2023-05-05T00:26:30.088Z,39.67
2023-05-05T00:27:30.144Z,39.72
2023-05-05T00:28:30.205Z,39.74
2023-05-05T00:29:30.265Z,39.67
2023-05-05T00:30:30.313Z,39.64
2023-05-05T00:31:30.555Z,39.56
2023-05-05T00:32:30.491Z,39.53
2023-05-05T00:33:30.557Z,39.64
2023-05-05T00:34:30.594Z,39.58
2023-05-05T00:35:30.647Z,39.59
2023-05-05T00:36:30.684Z,39.66
2023-05-05T00:37:30.760Z,39.70
2023-05-05T00:38:30.799Z,39.64
2023-05-05T00:39:30.877Z,39.74
2023-05-05T00:40:30.928Z,39.81
2023-05-05T00:41:31.005Z,39.76
2023-05-05T00:42:31.057Z,39.68
2023-05-05T00:43:31.114Z,39.63
2023-05-05T00:44:31.179Z,39.63
2023-05-05T00:45:31.201Z,39.67
2023-05-05T00:46:31.314Z,39.73
2023-05-05T00:47:31.366Z,39.81
2023-05-05T00:48:31.384Z,39.84
2023-05-05T00:49:31.514Z,39.79
2023-05-05T00:50:31.545Z,39.81
2023-05-05T00:51:31.593Z,39.83
2023-05-05T00:52:31.661Z,39.83
2023-05-05T00:53:31.701Z,39.84
2023-05-05T00:54:31.774Z,39.85
2023-05-05T00:55:31.816Z,39.84
2023-05-05T00:56:31.905Z,39.87
2023-05-05T00:57:31.959Z,39.84
2023-05-05T00:58:32.007Z,39.81
2023-05-05T00:59:32.071Z,39.76
2023-05-05T01:00:32.142Z,39.73
2023-05-05T01:01:32.219Z,39.64
2023-05-05T01:02:32.355Z,39.59
2023-05-05T01:03:32.384Z,39.63
2023-05-05T01:04:32.380Z,39.61
2023-05-05T01:05:32.421Z,39.53
2023-05-05T01:06:32.510Z,39.53
2023-05-05T01:07:32.553Z,39.63
2023-05-05T01:08:32.616Z,39.65
2023-05-05T01:09:32.686Z,39.69
2023-05-05T01:10:32.727Z,39.70
2023-05-05T01:11:32.775Z,39.66
2023-05-05T01:12:32.895Z,39.68
2023-05-05T01:13:32.880Z,39.72
2023-05-05T01:14:32.952Z,39.71
2023-05-05T01:15:33.003Z,39.78
2023-05-05T01:16:33.135Z,39.83
2023-05-05T01:17:33.176Z,39.81
2023-05-05T01:18:33.220Z,39.77
2023-05-05T01:19:33.266Z,39.80
2023-05-05T01:20:33.308Z,39.76
2023-05-05T01:21:33.402Z,39.76
2023-05-05T01:22:33.434Z,39.81
2023-05-05T01:23:33.480Z,39.79
2023-05-05T01:24:33.570Z,39.79
2023-05-05T01:25:33.677Z,39.78
2023-05-05T01:26:33.698Z,39.77
2023-05-05T01:27:33.775Z,39.77
2023-05-05T01:28:33.813Z,39.69
2023-05-05T01:29:33.852Z,39.74
2023-05-05T01:30:33.918Z,39.80
2023-05-05T01:31:34.062Z,39.77
2023-05-05T01:32:34.051Z,39.75
2023-05-05T01:33:34.121Z,39.75
2023-05-05T01:34:34.210Z,39.73
2023-05-05T01:35:34.284Z,39.70
2023-05-05T01:36:34.351Z,39.73
2023-05-05T01:37:34.377Z,39.70
2023-05-05T01:38:34.434Z,39.75
2023-05-05T01:39:34.518Z,39.72
2023-05-05T01:40:34.559Z,39.71
2023-05-05T01:41:34.629Z,39.73
2023-05-05T01:42:35.338Z,39.72
2023-05-05T01:43:34.729Z,39.70
2023-05-05T01:44:34.808Z,39.70
2023-05-05T01:45:34.945Z,39.67
2023-05-05T01:46:34.922Z,39.67
2023-05-05T01:47:34.968Z,39.71
2023-05-05T01:48:35.028Z,39.69
2023-05-05T01:49:35.083Z,39.74
2023-05-05T01:50:35.214Z,39.73
2023-05-05T01:51:35.200Z,39.68
2023-05-05T01:52:35.278Z,39.68
2023-05-05T01:53:35.341Z,39.68
2023-05-05T01:54:35.411Z,39.65
2023-05-05T01:55:35.464Z,39.67
2023-05-05T01:56:35.516Z,39.70
2023-05-05T01:57:35.578Z,39.69
2023-05-05T01:58:35.633Z,39.65
2023-05-05T01:59:35.694Z,39.71
2023-05-05T02:00:35.767Z,39.66
2023-05-05T02:01:35.891Z,39.65
2023-05-05T02:02:35.952Z,39.61
2023-05-05T02:03:35.968Z,39.58
2023-05-05T02:04:36.001Z,39.54
2023-05-05T02:05:36.040Z,39.52
2023-05-05T02:06:36.107Z,39.51
2023-05-05T02:07:36.193Z,39.55
2023-05-05T02:08:36.240Z,39.54
2023-05-05T02:09:36.352Z,39.57
2023-05-05T02:10:36.350Z,39.57
2023-05-05T02:11:36.422Z,39.60
2023-05-05T02:12:36.476Z,39.57
2023-05-05T02:13:36.561Z,39.54
2023-05-05T02:14:36.602Z,39.54
2023-05-05T02:15:36.723Z,39.56
2023-05-05T02:16:36.720Z,39.54
2023-05-05T02:17:36.875Z,39.53
2023-05-05T02:18:36.827Z,39.53
2023-05-05T02:19:36.888Z,39.51
2023-05-05T02:20:36.972Z,39.51
2023-05-05T02:21:37.051Z,39.52
2023-05-05T02:22:37.069Z,39.54
2023-05-05T02:23:37.151Z,39.51
2023-05-05T02:24:37.188Z,39.52
2023-05-05T02:25:37.266Z,39.51
2023-05-05T02:26:37.326Z,39.51
2023-05-05T02:27:37.400Z,39.48
2023-05-05T02:28:37.456Z,39.50
2023-05-05T02:29:37.508Z,39.50
2023-05-05T02:30:37.586Z,39.50
2023-05-05T02:31:37.667Z,39.48
2023-05-05T02:32:37.715Z,39.51
2023-05-05T02:33:37.720Z,39.50
2023-05-05T02:34:37.773Z,39.52
2023-05-05T02:35:37.822Z,39.48
2023-05-05T02:36:37.906Z,39.49
2023-05-05T02:37:37.939Z,39.49
2023-05-05T02:38:37.999Z,39.46
2023-05-05T02:39:38.051Z,39.44
2023-05-05T02:40:38.115Z,39.48
2023-05-05T02:41:38.179Z,39.49
2023-05-05T02:42:38.307Z,39.49
2023-05-05T02:43:38.278Z,39.45
2023-05-05T02:44:38.359Z,39.48
2023-05-05T02:45:38.373Z,39.46
2023-05-05T02:46:38.554Z,39.52
2023-05-05T02:47:38.630Z,39.46
2023-05-05T02:48:38.601Z,39.45
2023-05-05T02:49:38.638Z,39.44
2023-05-05T02:50:38.699Z,39.43
2023-05-05T02:51:38.752Z,39.45
2023-05-05T02:52:38.835Z,39.47
2023-05-05T02:53:38.896Z,39.49
2023-05-05T02:54:38.926Z,39.46
2023-05-05T02:55:38.962Z,39.48
2023-05-05T02:56:39.027Z,39.47
2023-05-05T02:57:39.060Z,39.47
2023-05-05T02:58:39.117Z,39.45
2023-05-05T02:59:39.153Z,39.44
2023-05-05T03:00:39.208Z,39.48
2023-05-05T03:01:39.300Z,39.47
2023-05-05T03:02:39.360Z,39.47
2023-05-05T03:03:39.405Z,39.46
2023-05-05T03:04:39.390Z,39.47
2023-05-05T03:05:39.430Z,39.48
2023-05-05T03:06:39.433Z,39.47
2023-05-05T03:07:39.475Z,39.44
2023-05-05T03:08:39.538Z,39.44
2023-05-05T03:09:39.568Z,39.45
2023-05-05T03:10:39.611Z,39.42
2023-05-05T03:11:39.620Z,39.42
2023-05-05T03:12:39.686Z,39.43
2023-05-05T03:13:39.718Z,39.41
2023-05-05T03:14:39.728Z,39.38
2023-05-05T03:15:39.829Z,39.37
2023-05-05T03:16:39.951Z,39.37
2023-05-05T03:17:39.913Z,39.38
2023-05-05T03:18:39.941Z,39.37
2023-05-05T03:19:39.951Z,39.37
2023-05-05T03:20:40.018Z,39.35
2023-05-05T03:21:40.089Z,39.38
2023-05-05T03:22:40.113Z,39.40
2023-05-05T03:23:40.174Z,39.38
2023-05-05T03:24:40.251Z,39.41
2023-05-05T03:25:40.283Z,39.41
2023-05-05T03:26:40.322Z,39.36
2023-05-05T03:27:40.367Z,39.36
2023-05-05T03:28:40.382Z,39.35
2023-05-05T03:29:40.432Z,39.34
2023-05-05T03:30:40.465Z,39.35
2023-05-05T03:31:40.545Z,39.33
2023-05-05T03:32:40.566Z,39.35
2023-05-05T03:33:40.556Z,39.36
2023-05-05T03:34:40.567Z,39.37
2023-05-05T03:35:41.876Z,39.36
2023-05-05T03:36:40.597Z,39.38
2023-05-05T03:37:40.580Z,39.38
2023-05-05T03:38:40.553Z,39.39
2023-05-05T03:39:40.603Z,39.40
2023-05-05T03:40:44.248Z,39.39
2023-05-05T03:41:40.638Z,39.40
2023-05-05T03:42:40.628Z,39.40
2023-05-05T03:43:40.596Z,39.39
2023-05-05T03:44:40.613Z,39.35
2023-05-05T03:45:40.629Z,39.39
2023-05-05T03:46:40.597Z,39.39
2023-05-05T03:47:40.581Z,39.36
2023-05-05T03:48:40.559Z,39.39
2023-05-05T03:49:40.592Z,39.39
2023-05-05T03:50:40.579Z,39.37
2023-05-05T03:51:40.551Z,39.39
2023-05-05T03:52:40.552Z,39.38
2023-05-05T03:53:40.535Z,39.35
2023-05-05T03:54:40.566Z,39.34
2023-05-05T03:55:40.558Z,39.38
2023-05-05T03:56:40.557Z,39.36
2023-05-05T03:57:40.520Z,39.37
2023-05-05T03:58:40.506Z,39.36
2023-05-05T03:59:40.522Z,39.36
2023-05-05T04:00:40.485Z,39.38
2023-05-05T04:01:40.495Z,39.36
2023-05-05T04:02:40.532Z,39.36
2023-05-05T04:03:40.523Z,39.35
2023-05-05T04:04:40.480Z,39.37
2023-05-05T04:05:40.474Z,39.34
2023-05-05T04:06:40.446Z,39.32
2023-05-05T04:07:40.458Z,39.30
2023-05-05T04:08:40.469Z,39.28
2023-05-05T04:09:40.417Z,39.28
2023-05-05T04:10:40.428Z,39.24
2023-05-05T04:11:40.460Z,39.25
2023-05-05T04:12:40.444Z,39.24
2023-05-05T04:13:40.433Z,39.25
2023-05-05T04:14:40.420Z,39.24
2023-05-05T04:15:40.387Z,39.26
2023-05-05T04:16:40.393Z,39.22
2023-05-05T04:17:40.398Z,39.19
2023-05-05T04:18:40.386Z,39.21
2023-05-05T04:19:40.444Z,39.21
2023-05-05T04:20:40.368Z,39.23
2023-05-05T04:21:40.390Z,39.20
2023-05-05T04:22:40.366Z,39.19
2023-05-05T04:23:40.339Z,39.18
2023-05-05T04:24:40.325Z,39.21
2023-05-05T04:25:40.325Z,39.18
2023-05-05T04:26:40.310Z,39.17
2023-05-05T04:27:40.321Z,39.18
2023-05-05T04:28:40.354Z,39.16
2023-05-05T04:29:40.374Z,39.15
2023-05-05T04:30:40.415Z,39.16
2023-05-05T04:31:40.483Z,39.15
2023-05-05T04:32:40.512Z,39.15
2023-05-05T04:33:40.507Z,39.16
2023-05-05T04:34:40.514Z,39.18
2023-05-05T04:35:40.569Z,39.17
2023-05-05T04:36:40.653Z,39.14
2023-05-05T04:37:40.596Z,39.15
2023-05-05T04:38:40.589Z,39.12
2023-05-05T04:39:40.566Z,39.14
2023-05-05T04:40:40.555Z,39.16
2023-05-05T04:41:40.583Z,39.13
2023-05-05T04:42:40.551Z,39.12
2023-05-05T04:43:40.532Z,39.13
2023-05-05T04:44:40.553Z,39.10
2023-05-05T04:45:40.532Z,39.12
2023-05-05T04:46:40.793Z,39.12
2023-05-05T04:47:40.773Z,39.14
2023-05-05T04:48:40.680Z,39.15
2023-05-05T04:49:40.731Z,39.16
2023-05-05T04:50:40.804Z,39.26
2023-05-05T04:51:40.892Z,39.37
2023-05-05T04:52:40.871Z,39.53
2023-05-05T04:53:40.900Z,39.82
2023-05-05T04:54:40.939Z,40.07
2023-05-05T04:55:40.894Z,40.32
2023-05-05T04:56:40.927Z,40.58
2023-05-05T04:57:40.934Z,40.66
2023-05-05T04:58:40.919Z,40.83
2023-05-05T04:59:40.916Z,40.96
2023-05-05T05:00:40.918Z,41.04
2023-05-05T05:01:40.977Z,41.15
2023-05-05T05:02:41.018Z,41.26
2023-05-05T05:03:40.947Z,41.33
2023-05-05T05:04:40.940Z,41.38
2023-05-05T05:05:40.947Z,41.46
2023-05-05T05:06:40.931Z,41.61
2023-05-05T05:07:40.976Z,41.67
2023-05-05T05:08:40.946Z,41.73
2023-05-05T05:09:40.956Z,41.82
2023-05-05T05:10:40.964Z,41.93
2023-05-05T05:11:40.961Z,41.93
2023-05-05T05:12:40.961Z,42.01
2023-05-05T05:13:40.941Z,42.07
2023-05-05T05:14:40.964Z,42.13
2023-05-05T05:15:40.960Z,42.14
2023-05-05T05:16:41.050Z,42.16
2023-05-05T05:17:40.997Z,42.22
2023-05-05T05:18:40.996Z,42.27
2023-05-05T05:19:40.958Z,42.26
2023-05-05T05:20:40.963Z,42.28
2023-05-05T05:21:40.973Z,42.33
2023-05-05T05:22:41.014Z,42.33
2023-05-05T05:23:40.981Z,42.33
2023-05-05T05:24:40.975Z,42.39
2023-05-05T05:25:40.986Z,42.40
2023-05-05T05:26:40.994Z,42.44
2023-05-05T05:27:40.961Z,42.41
2023-05-05T05:28:40.964Z,42.46
2023-05-05T05:29:40.958Z,42.47
2023-05-05T05:30:40.967Z,42.48
2023-05-05T05:31:41.030Z,42.48
2023-05-05T05:32:40.977Z,42.50
2023-05-05T05:33:40.966Z,42.47
2023-05-05T05:34:40.952Z,42.47
2023-05-05T05:35:40.964Z,42.77
2023-05-05T05:36:40.941Z,42.52
2023-05-05T05:37:42.969Z,42.51
2023-05-05T05:38:40.933Z,42.48
2023-05-05T05:39:43.312Z,42.37
2023-05-05T05:40:40.914Z,42.35
2023-05-05T05:41:40.939Z,42.30
2023-05-05T05:42:40.889Z,42.24
2023-05-05T05:43:40.891Z,42.22
2023-05-05T05:44:40.919Z,42.24
2023-05-05T05:45:40.977Z,42.50
2023-05-05T05:46:40.987Z,42.51
2023-05-05T05:47:40.921Z,42.65
2023-05-05T05:48:40.863Z,42.66
2023-05-05T05:49:40.851Z,42.95
2023-05-05T05:50:40.848Z,43.18
2023-05-05T05:51:40.846Z,43.91
2023-05-05T05:52:40.856Z,43.77
2023-05-05T05:53:40.875Z,44.34
2023-05-05T05:54:40.841Z,44.27
2023-05-05T05:55:40.803Z,44.61
2023-05-05T05:56:40.814Z,44.79
2023-05-05T05:57:40.783Z,45.01
2023-05-05T05:58:40.808Z,45.26
2023-05-05T05:59:40.796Z,44.99
2023-05-05T06:00:40.783Z,45.61
2023-05-05T06:01:40.917Z,45.40
2023-05-05T06:02:40.850Z,45.36
2023-05-05T06:03:40.901Z,45.47
2023-05-05T06:04:40.927Z,45.69
2023-05-05T06:05:40.751Z,45.57
2023-05-05T06:06:40.930Z,45.76
2023-05-05T06:07:40.736Z,45.74
2023-05-05T06:08:40.708Z,45.80
2023-05-05T06:09:40.727Z,46.23
2023-05-05T06:10:40.703Z,45.84
2023-05-05T06:11:40.928Z,45.92
2023-05-05T06:12:40.754Z,45.87
2023-05-05T06:13:40.676Z,45.89
2023-05-05T06:14:40.705Z,46.02
2023-05-05T06:15:40.809Z,46.21
2023-05-05T06:16:40.693Z,46.17
2023-05-05T06:17:40.699Z,46.20
2023-05-05T06:18:40.634Z,46.20
2023-05-05T06:19:40.673Z,46.15
2023-05-05T06:20:40.628Z,46.21
2023-05-05T06:21:40.650Z,46.25
2023-05-05T06:22:40.633Z,46.24
2023-05-05T06:23:40.618Z,46.26
2023-05-05T06:24:40.615Z,46.25
2023-05-05T06:25:40.595Z,46.33
2023-05-05T06:26:40.609Z,46.16
2023-05-05T06:27:40.601Z,46.16
2023-05-05T06:28:40.587Z,46.23
2023-05-05T06:29:40.597Z,46.26
2023-05-05T06:30:40.576Z,46.18
2023-05-05T06:31:40.681Z,46.14
2023-05-05T06:32:40.620Z,46.14
2023-05-05T06:33:40.590Z,46.12
2023-05-05T06:34:40.532Z,46.08
2023-05-05T06:35:40.570Z,45.97
2023-05-05T06:36:40.967Z,46.09
2023-05-05T06:37:40.537Z,46.35
2023-05-05T06:38:40.523Z,46.43
2023-05-05T06:39:40.518Z,46.40
2023-05-05T06:40:40.524Z,46.53
2023-05-05T06:41:40.516Z,46.57
2023-05-05T06:42:40.494Z,46.66
2023-05-05T06:43:40.496Z,46.60
2023-05-05T06:44:40.522Z,46.67
2023-05-05T06:45:41.055Z,46.75
2023-05-05T06:46:40.944Z,46.70
2023-05-05T06:47:40.493Z,47.19
2023-05-05T06:48:40.452Z,47.26
2023-05-05T06:49:40.454Z,47.21
2023-05-05T06:50:40.432Z,47.22
2023-05-05T06:51:42.213Z,46.95
2023-05-05T06:52:40.423Z,46.97
2023-05-05T06:53:40.455Z,47.20
2023-05-05T06:54:40.466Z,46.76
2023-05-05T06:55:40.464Z,46.88
2023-05-05T06:56:40.507Z,46.90
2023-05-05T06:57:40.525Z,46.83
2023-05-05T06:58:40.526Z,47.05
2023-05-05T06:59:40.754Z,47.24
2023-05-05T07:00:40.578Z,46.88
2023-05-05T07:01:40.971Z,46.96
2023-05-05T07:02:40.654Z,46.83
2023-05-05T07:03:40.679Z,46.73
2023-05-05T07:04:40.640Z,46.43
2023-05-05T07:05:40.676Z,46.15
2023-05-05T07:06:40.959Z,45.96
2023-05-05T07:07:40.699Z,45.79
2023-05-05T07:08:40.720Z,45.69
2023-05-05T07:09:40.698Z,45.17
2023-05-05T07:10:41.408Z,45.77
2023-05-05T07:11:40.721Z,45.16
2023-05-05T07:12:40.735Z,45.22
2023-05-05T07:13:40.736Z,45.15
2023-05-05T07:14:40.741Z,45.26
2023-05-05T07:15:40.856Z,45.16
2023-05-05T07:16:40.797Z,45.90
2023-05-05T07:17:40.702Z,45.27
2023-05-05T07:18:40.709Z,45.12
2023-05-05T07:19:40.674Z,45.11
2023-05-05T07:20:40.729Z,45.02
2023-05-05T07:21:40.711Z,45.07
2023-05-05T07:22:40.739Z,45.19
2023-05-05T07:23:40.692Z,45.52
2023-05-05T07:24:40.676Z,45.22
2023-05-05T07:25:40.717Z,45.60
2023-05-05T07:26:40.697Z,45.46
2023-05-05T07:27:40.707Z,45.84
2023-05-05T07:28:40.701Z,45.87
2023-05-05T07:29:40.708Z,45.44
2023-05-05T07:30:40.717Z,45.34
2023-05-05T07:31:40.926Z,45.24
2023-05-05T07:32:40.761Z,45.39
2023-05-05T07:33:40.702Z,45.33
2023-05-05T07:34:40.691Z,45.24
2023-05-05T07:35:40.679Z,45.10
2023-05-05T07:36:40.681Z,45.14
2023-05-05T07:37:40.669Z,45.43
2023-05-05T07:38:40.703Z,45.24
2023-05-05T07:39:40.678Z,45.18
2023-05-05T07:40:40.660Z,44.96
2023-05-05T07:41:40.961Z,44.92
2023-05-05T07:42:40.676Z,45.12
2023-05-05T07:43:41.697Z,44.77
2023-05-05T07:44:40.684Z,44.62
2023-05-05T07:45:40.798Z,44.71
2023-05-05T07:46:40.739Z,44.85
2023-05-05T07:47:40.875Z,44.87
2023-05-05T07:48:40.744Z,44.93
2023-05-05T07:49:40.751Z,44.89
2023-05-05T07:50:40.723Z,45.06
2023-05-05T07:51:40.770Z,45.05
2023-05-05T07:53:40.793Z,45.04
2023-05-05T07:54:40.749Z,45.08
2023-05-05T07:55:40.754Z,44.99
2023-05-05T07:56:40.740Z,45.01
2023-05-05T07:57:40.735Z,45.00
2023-05-05T07:58:40.716Z,45.00
2023-05-05T07:59:40.714Z,45.01
2023-05-05T08:00:40.708Z,44.99
2023-05-05T08:01:40.751Z,44.91
2023-05-05T08:02:40.705Z,44.90
2023-05-05T08:03:40.880Z,44.91
2023-05-05T08:04:40.700Z,44.85
2023-05-05T08:05:40.830Z,44.86
2023-05-05T08:06:40.662Z,44.82
2023-05-05T08:07:40.676Z,44.84
2023-05-05T08:08:40.680Z,44.72
2023-05-05T08:09:40.661Z,44.63
2023-05-05T08:10:40.651Z,44.62
2023-05-05T08:11:40.636Z,44.62
2023-05-05T08:12:40.779Z,44.66
2023-05-05T08:13:40.649Z,44.70
2023-05-05T08:14:40.596Z,44.70
2023-05-05T08:15:40.669Z,44.69
2023-05-05T08:16:40.584Z,44.69
2023-05-05T08:17:40.626Z,44.71
2023-05-05T08:18:40.611Z,44.75
2023-05-05T08:19:40.678Z,44.76
2023-05-05T08:20:40.660Z,44.78
2023-05-05T08:21:40.581Z,44.87
2023-05-05T08:22:40.586Z,45.00
2023-05-05T08:23:40.560Z,45.07
2023-05-05T08:24:40.557Z,45.00
2023-05-05T08:25:40.550Z,45.06
2023-05-05T08:26:40.541Z,45.10
2023-05-05T08:27:40.533Z,45.11
2023-05-05T08:28:40.568Z,45.05
2023-05-05T08:29:40.535Z,45.05
2023-05-05T08:30:40.493Z,45.02
2023-05-05T08:31:40.546Z,44.98
2023-05-05T08:32:40.530Z,45.03
2023-05-05T08:33:40.471Z,44.88
2023-05-05T08:34:40.498Z,44.82
2023-05-05T08:35:40.573Z,44.68
2023-05-05T08:36:40.473Z,44.86
2023-05-05T08:37:40.516Z,44.81
2023-05-05T08:38:40.461Z,44.73
2023-05-05T08:39:40.432Z,44.71
2023-05-05T08:40:40.447Z,44.57
2023-05-05T08:41:40.409Z,44.48
2023-05-05T08:42:40.489Z,44.47
2023-05-05T08:43:40.429Z,44.40
2023-05-05T08:44:40.408Z,44.46
2023-05-05T08:45:40.419Z,44.42
2023-05-05T08:46:40.437Z,44.42
2023-05-05T08:47:40.455Z,44.41
2023-05-05T08:48:40.399Z,44.32
2023-05-05T08:49:40.359Z,44.35
2023-05-05T08:50:40.365Z,44.36
2023-05-05T08:51:40.436Z,44.27
2023-05-05T08:52:40.513Z,44.18
2023-05-05T08:53:40.356Z,44.21
2023-05-05T08:54:40.327Z,44.10
2023-05-05T08:55:40.339Z,44.05
2023-05-05T08:56:40.316Z,43.93
2023-05-05T08:57:40.322Z,43.89
2023-05-05T08:58:40.307Z,43.80
2023-05-05T08:59:40.312Z,43.76
2023-05-05T09:00:40.364Z,43.80
2023-05-05T09:01:40.273Z,43.85
2023-05-05T09:02:40.324Z,43.86
2023-05-05T09:03:40.259Z,43.77
2023-05-05T09:04:40.241Z,43.80
2023-05-05T09:05:40.309Z,43.77
2023-05-05T09:06:40.276Z,43.78
2023-05-05T09:07:40.484Z,43.83
2023-05-05T09:08:40.257Z,43.82
2023-05-05T09:09:40.255Z,43.84
2023-05-05T09:10:40.246Z,43.79
2023-05-05T09:11:40.222Z,43.75
2023-05-05T09:12:40.244Z,43.73
2023-05-05T09:13:40.211Z,43.74
2023-05-05T09:14:40.168Z,43.72
2023-05-05T09:15:40.195Z,43.69
2023-05-05T09:16:40.294Z,43.63
2023-05-05T09:17:40.316Z,43.59
2023-05-05T09:18:40.308Z,43.42
2023-05-05T09:19:40.327Z,43.34
2023-05-05T09:20:40.385Z,43.33
2023-05-05T09:21:40.391Z,43.28
2023-05-05T09:22:40.497Z,43.21
2023-05-05T09:23:40.597Z,43.18
2023-05-05T09:24:40.498Z,43.27
2023-05-05T09:25:40.529Z,43.31
2023-05-05T09:26:40.535Z,43.30
2023-05-05T09:27:41.028Z,43.31
2023-05-05T09:28:40.668Z,43.35
2023-05-05T09:29:40.673Z,43.34
2023-05-05T09:30:40.730Z,43.54
2023-05-05T09:31:40.732Z,43.88
2023-05-05T09:32:41.026Z,44.10
2023-05-05T09:33:40.796Z,45.68
2023-05-05T09:34:40.841Z,45.30
2023-05-05T09:35:40.836Z,45.02
2023-05-05T09:36:40.912Z,44.98
2023-05-05T09:37:40.894Z,45.43
2023-05-05T09:38:40.920Z,45.66
2023-05-05T09:39:40.979Z,45.64
2023-05-05T09:40:40.916Z,45.84
2023-05-05T09:41:40.910Z,46.50
2023-05-05T09:42:41.058Z,46.19
2023-05-05T09:43:40.951Z,45.95
2023-05-05T09:44:40.936Z,45.75
2023-05-05T09:45:40.935Z,46.13
2023-05-05T09:46:40.930Z,46.60
2023-05-05T09:47:40.982Z,46.19
2023-05-05T09:48:40.937Z,46.03
2023-05-05T09:49:40.913Z,46.28
2023-05-05T09:50:40.935Z,46.46
2023-05-05T09:51:40.910Z,46.95
2023-05-05T09:52:40.924Z,47.21
2023-05-05T09:53:41.020Z,47.33
2023-05-05T09:54:41.057Z,47.58
2023-05-05T09:55:41.185Z,47.83
2023-05-05T09:56:41.154Z,48.30
2023-05-05T09:57:41.518Z,48.50
2023-05-05T09:58:41.327Z,48.67
2023-05-05T09:59:41.347Z,48.17
2023-05-05T10:00:41.382Z,48.09
2023-05-05T10:01:41.483Z,48.06
2023-05-05T10:02:41.529Z,48.12
2023-05-05T10:03:41.551Z,48.43
2023-05-05T10:04:41.685Z,47.92
2023-05-05T10:05:41.698Z,48.36
2023-05-05T10:06:41.754Z,48.27
2023-05-05T10:07:41.796Z,48.14
2023-05-05T10:08:41.837Z,48.27
2023-05-05T10:09:41.920Z,48.32
2023-05-05T10:10:41.942Z,48.55
2023-05-05T10:11:42.147Z,48.75
2023-05-05T10:12:42.098Z,49.00
2023-05-05T10:13:42.264Z,49.20
2023-05-05T10:14:42.145Z,49.27
2023-05-05T10:15:42.227Z,49.14
2023-05-05T10:16:42.270Z,48.99
2023-05-05T10:17:50.827Z,49.21
2023-05-05T10:18:43.307Z,48.91
2023-05-05T10:19:42.256Z,48.76
2023-05-05T10:20:42.268Z,48.73
2023-05-05T10:21:42.394Z,48.58
2023-05-05T10:22:42.239Z,48.61
2023-05-05T10:23:42.236Z,48.36
2023-05-05T10:24:42.212Z,48.31
2023-05-05T10:25:42.200Z,48.24
2023-05-05T10:26:42.199Z,48.07
2023-05-05T10:27:42.184Z,48.16
2023-05-05T10:28:42.211Z,48.14
2023-05-05T10:29:42.160Z,48.29
2023-05-05T10:30:42.208Z,48.40
2023-05-05T10:31:42.213Z,48.47
2023-05-05T10:33:42.339Z,48.59
2023-05-05T10:34:42.264Z,48.56
2023-05-05T10:35:42.225Z,48.78
2023-05-05T10:36:42.187Z,48.66
2023-05-05T10:37:42.160Z,48.74
2023-05-05T10:38:42.170Z,48.33
2023-05-05T10:39:42.156Z,48.16
2023-05-05T10:40:42.181Z,47.58
2023-05-05T10:41:42.139Z,47.56
2023-05-05T10:42:42.158Z,46.91
2023-05-05T10:43:42.132Z,46.95
2023-05-05T10:44:42.145Z,47.17
2023-05-05T10:45:42.259Z,47.17
2023-05-05T10:46:42.270Z,47.48
2023-05-05T10:47:42.154Z,46.82
2023-05-05T10:48:42.159Z,47.13
2023-05-05T10:49:42.100Z,47.20
2023-05-05T10:50:42.084Z,47.16
2023-05-05T10:51:42.116Z,47.25
2023-05-05T10:52:42.094Z,47.35
2023-05-05T10:53:42.075Z,47.65
2023-05-05T10:54:42.075Z,47.55
2023-05-05T10:55:42.052Z,48.25
2023-05-05T10:56:42.045Z,47.35
2023-05-05T10:57:42.044Z,47.49
2023-05-05T10:58:58.325Z,47.55
2023-05-05T10:59:43.097Z,47.70
2023-05-05T11:00:42.060Z,47.50
2023-05-05T11:01:42.001Z,47.39
2023-05-05T11:02:42.057Z,47.32
2023-05-05T11:03:42.030Z,47.36
2023-05-05T11:04:41.986Z,47.34
2023-05-05T11:05:41.980Z,47.41
2023-05-05T11:06:41.976Z,47.32
2023-05-05T11:07:42.006Z,47.29
2023-05-05T11:08:41.957Z,47.22
2023-05-05T11:09:41.978Z,47.31
2023-05-05T11:10:41.979Z,47.23
2023-05-05T11:11:41.947Z,47.28
2023-05-05T11:12:41.952Z,47.28
2023-05-05T11:13:41.944Z,47.01
2023-05-05T11:14:41.927Z,46.97
2023-05-05T11:15:42.057Z,46.90
2023-05-05T11:16:42.012Z,46.81
2023-05-05T11:17:41.899Z,46.77
2023-05-05T11:18:41.907Z,46.82
2023-05-05T11:19:41.942Z,46.83
2023-05-05T11:20:41.867Z,46.88
2023-05-05T11:21:41.889Z,46.85
2023-05-05T11:22:41.918Z,47.03
2023-05-05T11:23:41.877Z,46.92
2023-05-05T11:24:41.857Z,46.89
2023-05-05T11:25:41.855Z,46.91
2023-05-05T11:26:41.865Z,47.00
2023-05-05T11:27:41.862Z,47.05
2023-05-05T11:28:42.062Z,47.06
2023-05-05T11:29:41.836Z,47.48
2023-05-05T11:30:41.863Z,47.30
2023-05-05T11:31:41.938Z,47.12
2023-05-05T11:32:41.824Z,47.06
2023-05-05T11:33:42.062Z,46.10
2023-05-05T11:34:41.825Z,45.44
2023-05-05T11:35:41.804Z,45.49
2023-05-05T11:36:41.786Z,44.59
2023-05-05T11:37:41.760Z,44.58
2023-05-05T11:38:41.754Z,44.71
2023-05-05T11:39:41.796Z,44.94
2023-05-05T11:40:41.839Z,44.82
2023-05-05T11:41:41.856Z,44.77
2023-05-05T11:42:41.887Z,44.84
2023-05-05T11:43:41.902Z,45.02
2023-05-05T11:44:41.915Z,45.12
2023-05-05T11:45:41.969Z,45.13
2023-05-05T11:46:42.041Z,44.99
2023-05-05T11:47:42.132Z,45.00
2023-05-05T11:48:42.124Z,44.94
2023-05-05T11:49:42.128Z,44.90
2023-05-05T11:50:42.187Z,44.85
2023-05-05T11:51:42.237Z,44.82
2023-05-05T11:52:42.259Z,44.90
2023-05-05T11:53:42.309Z,44.80
2023-05-05T11:54:42.351Z,44.74
2023-05-05T11:55:42.400Z,44.77
2023-05-05T11:56:42.446Z,44.74
2023-05-05T11:57:42.478Z,44.59
2023-05-05T11:58:42.527Z,44.59
2023-05-05T11:59:42.552Z,44.48
2023-05-05T12:00:42.629Z,44.51
2023-05-05T12:01:42.638Z,44.48
2023-05-05T12:02:42.789Z,44.43
2023-05-05T12:03:42.955Z,44.45
2023-05-05T12:04:42.832Z,44.48
2023-05-05T12:05:42.873Z,44.45
2023-05-05T12:06:42.932Z,44.37
2023-05-05T12:07:43.021Z,44.36
2023-05-05T12:08:43.074Z,44.36
2023-05-05T12:09:43.108Z,44.22
2023-05-05T12:10:43.165Z,44.13
2023-05-05T12:11:43.276Z,43.99
2023-05-05T12:12:43.326Z,44.01
2023-05-05T12:13:43.353Z,44.06
2023-05-05T12:14:43.399Z,43.97
2023-05-05T12:15:43.474Z,43.95
2023-05-05T12:16:43.544Z,43.69
2023-05-05T12:17:43.631Z,43.25
2023-05-05T12:18:43.664Z,43.37
2023-05-05T12:19:43.919Z,43.53
2023-05-05T12:20:43.800Z,43.62
2023-05-05T12:21:43.820Z,43.35
2023-05-05T12:22:43.869Z,43.29
2023-05-05T12:23:43.954Z,43.27
2023-05-05T12:24:43.973Z,43.16
2023-05-05T12:25:44.069Z,43.04
2023-05-05T12:26:44.125Z,42.94
2023-05-05T12:27:44.157Z,42.76
2023-05-05T12:28:44.233Z,42.46
2023-05-05T12:29:44.258Z,42.40
2023-05-05T12:30:44.329Z,42.43
2023-05-05T12:31:44.431Z,42.47
2023-05-05T12:32:44.538Z,42.60
2023-05-05T12:33:44.437Z,42.78
2023-05-05T12:34:44.463Z,42.74
2023-05-05T12:35:44.509Z,42.74
2023-05-05T12:36:44.528Z,42.67
2023-05-05T12:37:44.526Z,42.71
2023-05-05T12:38:44.591Z,42.76
2023-05-05T12:39:44.611Z,42.78
2023-05-05T12:40:44.723Z,42.79
2023-05-05T12:41:44.655Z,42.76
2023-05-05T12:42:46.281Z,42.68
2023-05-05T12:43:44.757Z,42.63
2023-05-05T12:44:44.797Z,42.55
2023-05-05T12:45:44.844Z,42.36
2023-05-05T12:46:44.839Z,42.43
2023-05-05T12:47:44.978Z,42.37
2023-05-05T12:48:47.864Z,42.18
2023-05-05T12:49:44.920Z,42.40
2023-05-05T12:50:44.876Z,42.46
2023-05-05T12:51:44.854Z,42.39
2023-05-05T12:52:44.891Z,42.38
2023-05-05T12:53:44.855Z,42.37
2023-05-05T12:54:44.895Z,42.30